createdAt,value
2019-01-15T00:00:11.396Z,6.35
2019-01-15T00:01:16.154Z,4.92
2019-01-15T00:02:20.869Z,5.60
2019-01-15T00:03:27.244Z,5.55
2019-01-15T00:04:34.870Z,6.72
2019-01-15T00:05:40.165Z,5.67
2019-01-15T00:06:45.035Z,5.83
2019-01-15T00:07:49.995Z,5.97
2019-01-15T00:08:54.858Z,5.97
2019-01-15T00:09:59.676Z,5.75
2019-01-15T00:11:04.599Z,5.35
2019-01-15T00:12:09.770Z,6.00
2019-01-15T00:13:14.504Z,6.03
2019-01-15T00:14:19.339Z,5.75
2019-01-15T00:15:24.183Z,5.08
2019-01-15T00:16:28.968Z,6.58
2019-01-15T00:17:33.758Z,6.08
2019-01-15T00:18:42.769Z,5.67
2019-01-15T00:19:47.635Z,5.30
2019-01-15T00:20:55.797Z,5.92
2019-01-15T00:22:00.819Z,5.70
2019-01-15T00:23:05.580Z,6.58
2019-01-15T00:24:10.362Z,5.58
2019-01-15T00:25:15.265Z,6.15
2019-01-15T00:26:20.056Z,6.50
2019-01-15T00:27:27.184Z,5.55
2019-01-15T00:28:31.977Z,5.47
2019-01-15T00:29:36.729Z,5.42
2019-01-15T00:30:44.148Z,5.90
2019-01-15T00:31:48.976Z,6.87
2019-01-15T00:32:53.964Z,4.67
2019-01-15T00:33:58.817Z,6.65
2019-01-15T00:35:03.584Z,6.30
2019-01-15T00:36:10.070Z,5.70
2019-01-15T00:37:14.852Z,6.12
2019-01-15T00:38:19.576Z,6.42
2019-01-15T00:39:24.353Z,7.08
2019-01-15T00:40:29.137Z,6.37
2019-01-15T00:41:34.024Z,7.45
2019-01-15T00:42:38.840Z,5.90
2019-01-15T00:43:43.852Z,5.00
2019-01-15T00:44:48.613Z,6.05
2019-01-15T00:45:55.621Z,6.03
2019-01-15T00:47:00.483Z,6.03
2019-01-15T00:48:05.538Z,5.03
2019-01-15T00:49:10.296Z,6.47
2019-01-15T00:50:16.314Z,5.53
2019-01-15T00:51:21.080Z,5.85
2019-01-15T00:52:27.825Z,5.47
2019-01-15T00:53:32.335Z,5.58
2019-01-15T00:54:37.087Z,6.75
2019-01-15T00:55:41.804Z,6.45
2019-01-15T00:56:47.317Z,5.70
2019-01-15T00:57:56.816Z,4.90
2019-01-15T00:59:04.267Z,5.78
2019-01-15T01:00:18.981Z,5.40
2019-01-15T01:01:23.801Z,5.72
2019-01-15T01:02:29.047Z,4.47
2019-01-15T01:03:33.816Z,5.60
2019-01-15T01:04:38.674Z,5.67
2019-01-15T01:05:43.720Z,5.15
2019-01-15T01:06:48.721Z,5.10
2019-01-15T01:07:53.625Z,5.35
2019-01-15T01:08:59.021Z,4.35
2019-01-15T01:10:04.228Z,6.30
2019-01-15T01:11:09.884Z,6.08
2019-01-15T01:12:14.771Z,5.28
2019-01-15T01:13:19.587Z,5.03
2019-01-15T01:14:24.747Z,4.95
2019-01-15T01:15:29.520Z,5.87
2019-01-15T01:16:34.256Z,5.28
2019-01-15T01:17:39.075Z,5.58
2019-01-15T01:18:45.918Z,5.17
2019-01-15T01:19:50.665Z,5.12
2019-01-15T01:20:55.879Z,4.50
2019-01-15T01:22:00.660Z,5.67
2019-01-15T01:23:05.712Z,4.55
2019-01-15T01:24:10.554Z,5.30
2019-01-15T01:25:15.709Z,4.95
2019-01-15T01:26:20.512Z,4.92
2019-01-15T01:27:25.814Z,4.47
2019-01-15T01:28:30.666Z,4.87
2019-01-15T01:29:35.473Z,4.47
2019-01-15T01:30:40.387Z,6.40
2019-01-15T01:31:45.236Z,5.33
2019-01-15T01:32:50.175Z,5.40
2019-01-15T01:33:55.742Z,6.05
2019-01-15T01:35:00.736Z,5.25
2019-01-15T01:36:05.741Z,5.22
2019-01-15T01:37:10.544Z,4.20
2019-01-15T01:38:15.293Z,5.15
2019-01-15T01:39:20.085Z,4.83
2019-01-15T01:40:25.160Z,5.05
2019-01-15T01:41:29.924Z,6.17
2019-01-15T01:42:34.685Z,5.10
2019-01-15T01:43:39.386Z,4.87
2019-01-15T01:44:44.169Z,4.20
2019-01-15T01:45:48.950Z,5.65
2019-01-15T01:46:53.744Z,4.55
2019-01-15T01:47:58.546Z,5.12
2019-01-15T01:49:03.240Z,6.58
2019-01-15T01:50:09.007Z,5.03
2019-01-15T01:51:13.807Z,4.30
2019-01-15T01:52:18.544Z,5.95
2019-01-15T01:53:23.270Z,5.65
2019-01-15T01:54:28.035Z,4.80
2019-01-15T01:55:32.832Z,5.65
2019-01-15T01:56:37.548Z,5.17
2019-01-15T01:57:42.271Z,6.30
2019-01-15T01:58:47.043Z,5.83
2019-01-15T01:59:51.841Z,5.78
2019-01-15T02:00:59.128Z,6.20
2019-01-15T02:02:04.035Z,5.05
2019-01-15T02:03:14.756Z,5.72
2019-01-15T02:04:19.520Z,5.67
2019-01-15T02:05:26.827Z,5.70
2019-01-15T02:06:35.046Z,6.60
2019-01-15T02:07:39.780Z,6.33
2019-01-15T02:08:44.522Z,6.00
2019-01-15T02:09:49.524Z,6.12
2019-01-15T02:10:56.157Z,6.85
2019-01-15T02:12:04.283Z,5.58
2019-01-15T02:13:11.785Z,5.10
2019-01-15T02:14:16.529Z,5.72
2019-01-15T02:15:23.665Z,5.45
2019-01-15T02:16:28.760Z,5.90
2019-01-15T02:17:34.950Z,7.03
2019-01-15T02:18:39.692Z,5.90
2019-01-15T02:19:44.463Z,6.47
2019-01-15T02:20:49.136Z,5.90
2019-01-15T02:21:53.950Z,5.65
2019-01-15T02:22:58.974Z,4.83
2019-01-15T02:24:03.899Z,7.20
2019-01-15T02:25:09.022Z,5.80
2019-01-15T02:26:13.781Z,6.50
2019-01-15T02:27:18.881Z,5.55
2019-01-15T02:28:23.596Z,5.25
2019-01-15T02:29:28.457Z,6.37
2019-01-15T02:30:33.270Z,6.85
2019-01-15T02:31:38.041Z,6.15
2019-01-15T02:32:42.816Z,4.97
2019-01-15T02:33:47.647Z,6.40
2019-01-15T02:34:52.383Z,6.22
2019-01-15T02:35:57.247Z,6.20
2019-01-15T02:37:02.000Z,6.30
2019-01-15T02:38:06.761Z,5.85
2019-01-15T02:39:11.521Z,6.30
2019-01-15T02:40:16.574Z,6.45
2019-01-15T02:41:21.362Z,6.08
2019-01-15T02:42:26.145Z,6.67
2019-01-15T02:43:31.038Z,6.53
2019-01-15T02:44:35.790Z,6.50
2019-01-15T02:45:40.857Z,6.05
2019-01-15T02:46:45.571Z,5.08
2019-01-15T02:47:54.161Z,6.80
2019-01-15T02:48:58.941Z,5.28
2019-01-15T02:50:06.691Z,7.47
2019-01-15T02:51:11.485Z,6.00
2019-01-15T02:52:18.652Z,5.17
2019-01-15T02:53:26.168Z,7.00
2019-01-15T02:54:30.913Z,6.28
2019-01-15T02:55:35.734Z,6.20
2019-01-15T02:56:40.494Z,6.30
2019-01-15T02:57:45.370Z,6.75
2019-01-15T02:58:50.604Z,5.95
2019-01-15T02:59:55.468Z,5.70
2019-01-15T03:01:00.283Z,5.55
2019-01-15T03:02:05.342Z,5.25
2019-01-15T03:03:13.137Z,6.12
2019-01-15T03:04:18.280Z,6.17
2019-01-15T03:05:23.742Z,6.65
2019-01-15T03:06:28.528Z,8.13
2019-01-15T03:07:33.589Z,6.03
2019-01-15T03:08:38.316Z,6.62
2019-01-15T03:09:46.121Z,7.33
2019-01-15T03:10:51.300Z,7.70
2019-01-15T03:11:56.022Z,7.10
2019-01-15T03:13:03.795Z,5.83
2019-01-15T03:14:08.622Z,6.08
2019-01-15T03:15:13.542Z,5.20
2019-01-15T03:16:18.240Z,6.20
2019-01-15T03:17:23.571Z,6.55
2019-01-15T03:18:28.381Z,6.28
2019-01-15T03:19:33.171Z,6.53
2019-01-15T03:20:38.038Z,6.10
2019-01-15T03:21:42.791Z,7.35
2019-01-15T03:22:47.565Z,6.53
2019-01-15T03:23:55.686Z,7.65
2019-01-15T03:25:00.402Z,6.60
2019-01-15T03:26:05.322Z,7.30
2019-01-15T03:27:10.110Z,8.48
2019-01-15T03:28:14.861Z,16.82
2019-01-15T03:29:19.663Z,8.90
2019-01-15T03:30:25.414Z,8.43
2019-01-15T03:31:30.251Z,7.83
2019-01-15T03:32:35.142Z,14.20
2019-01-15T03:33:39.931Z,7.10
2019-01-15T03:34:44.846Z,6.78
2019-01-15T03:35:49.585Z,17.80
2019-01-15T03:36:54.363Z,8.08
2019-01-15T03:38:02.194Z,7.83
2019-01-15T03:39:09.312Z,6.55
2019-01-15T03:40:17.286Z,8.13
2019-01-15T03:41:22.131Z,8.35
2019-01-15T03:42:27.100Z,8.40
2019-01-15T03:43:31.906Z,8.20
2019-01-15T03:44:36.661Z,7.65
2019-01-15T03:45:41.385Z,6.62
2019-01-15T03:46:46.141Z,8.25
2019-01-15T03:47:50.938Z,8.63
2019-01-15T03:48:55.832Z,8.10
2019-01-15T03:50:00.690Z,10.03
2019-01-15T03:51:05.506Z,8.08
2019-01-15T03:52:10.321Z,8.35
2019-01-15T03:53:15.161Z,8.68
2019-01-15T03:54:19.894Z,9.30
2019-01-15T03:55:24.778Z,12.23
2019-01-15T03:56:29.522Z,9.05
2019-01-15T03:57:34.290Z,9.48
2019-01-15T03:58:39.681Z,10.32
2019-01-15T03:59:44.551Z,9.68
2019-01-15T04:00:49.415Z,10.35
2019-01-15T04:01:54.184Z,9.80
2019-01-15T04:02:58.916Z,9.23
2019-01-15T04:04:03.770Z,9.98
2019-01-15T04:05:09.053Z,9.20
2019-01-15T04:06:13.828Z,10.30
2019-01-15T04:07:19.340Z,10.23
2019-01-15T04:08:24.193Z,9.18
2019-01-15T04:09:29.101Z,9.70
2019-01-15T04:10:33.996Z,8.88
2019-01-15T04:11:39.292Z,10.65
2019-01-15T04:12:44.242Z,10.25
2019-01-15T04:13:49.001Z,13.45
2019-01-15T04:14:53.770Z,11.70
2019-01-15T04:15:58.622Z,10.48
2019-01-15T04:17:03.428Z,10.05
2019-01-15T04:18:08.591Z,8.18
2019-01-15T04:19:13.336Z,10.35
2019-01-15T04:20:18.305Z,9.05
2019-01-15T04:21:23.195Z,8.93
2019-01-15T04:22:28.110Z,9.48
2019-01-15T04:23:32.846Z,9.68
2019-01-15T04:24:37.998Z,8.80
2019-01-15T04:25:42.764Z,7.90
2019-01-15T04:26:47.486Z,9.13
2019-01-15T04:27:52.666Z,8.08
2019-01-15T04:28:57.397Z,7.78
2019-01-15T04:30:02.154Z,7.78
2019-01-15T04:31:06.903Z,8.18
2019-01-15T04:32:11.615Z,7.42
2019-01-15T04:33:16.401Z,8.03
2019-01-15T04:34:21.215Z,7.67
2019-01-15T04:35:25.968Z,7.12
2019-01-15T04:36:30.688Z,7.33
2019-01-15T04:37:35.497Z,8.95
2019-01-15T04:38:40.325Z,7.87
2019-01-15T04:39:45.072Z,7.28
2019-01-15T04:40:49.826Z,9.10
2019-01-15T04:41:54.665Z,7.60
2019-01-15T04:42:59.464Z,8.23
2019-01-15T04:45:40.039Z,8.00
2019-01-15T04:45:44.083Z,7.83
2019-01-15T04:46:48.818Z,7.00
2019-01-15T04:47:53.700Z,7.80
2019-01-15T04:48:58.412Z,7.35
2019-01-15T04:50:03.462Z,8.70
2019-01-15T04:51:08.629Z,7.65
2019-01-15T04:52:13.404Z,8.55
2019-01-15T04:53:18.895Z,9.30
2019-01-15T04:54:23.962Z,8.93
2019-01-15T04:55:28.910Z,9.70
2019-01-15T04:56:34.678Z,9.05
2019-01-15T04:57:39.831Z,8.68
2019-01-15T04:58:46.343Z,9.70
2019-01-15T04:59:51.565Z,8.65
2019-01-15T05:00:56.545Z,10.30
2019-01-15T05:02:01.804Z,9.38
2019-01-15T05:03:08.825Z,10.75
2019-01-15T05:04:13.709Z,10.43
2019-01-15T05:05:21.231Z,10.45
2019-01-15T05:06:26.136Z,11.88
2019-01-15T05:07:31.046Z,12.00
2019-01-15T05:08:36.182Z,11.10
2019-01-15T05:09:40.988Z,12.25
2019-01-15T05:10:45.714Z,11.05
2019-01-15T05:11:50.489Z,10.48
2019-01-15T05:12:55.560Z,11.70
2019-01-15T05:14:00.514Z,9.75
2019-01-15T05:15:07.009Z,13.13
2019-01-15T05:16:11.762Z,12.93
2019-01-15T05:17:16.576Z,13.95
2019-01-15T05:18:21.330Z,12.65
2019-01-15T05:19:26.761Z,14.33
2019-01-15T05:20:31.737Z,11.28
2019-01-15T05:21:39.973Z,12.07
2019-01-15T05:22:44.990Z,12.00
2019-01-15T05:23:52.074Z,12.68
2019-01-15T05:24:56.859Z,11.85
2019-01-15T05:26:01.872Z,13.68
2019-01-15T05:27:06.697Z,11.97
2019-01-15T05:28:12.107Z,12.10
2019-01-15T05:29:16.818Z,14.70
2019-01-15T05:30:26.713Z,11.95
2019-01-15T05:31:31.567Z,14.13
2019-01-15T05:32:36.498Z,12.15
2019-01-15T05:33:41.622Z,12.93
2019-01-15T05:34:46.484Z,12.23
2019-01-15T05:35:51.709Z,11.43
2019-01-15T05:36:56.563Z,13.38
2019-01-15T05:38:01.341Z,12.10
2019-01-15T05:39:08.617Z,11.90
2019-01-15T05:40:16.892Z,10.70
2019-01-15T05:41:21.640Z,12.25
2019-01-15T05:42:26.428Z,12.37
2019-01-15T05:43:35.434Z,12.13
2019-01-15T05:44:37.617Z,12.13
2019-01-15T05:45:45.060Z,11.63
2019-01-15T05:46:49.830Z,12.10
2019-01-15T05:47:55.021Z,12.75
2019-01-15T05:48:59.858Z,12.45
2019-01-15T05:50:05.340Z,12.90
2019-01-15T05:51:26.425Z,11.75
2019-01-15T05:52:32.815Z,12.98
2019-01-15T05:53:37.744Z,11.25
2019-01-15T05:54:43.799Z,12.98
2019-01-15T05:55:48.642Z,13.13
2019-01-15T05:56:53.378Z,13.95
2019-01-15T05:57:58.152Z,12.73
2019-01-15T05:59:02.913Z,13.43
2019-01-15T06:00:09.549Z,11.25
2019-01-15T06:01:14.311Z,11.70
2019-01-15T06:02:19.077Z,11.80
2019-01-15T06:03:23.853Z,10.60
2019-01-15T06:04:30.556Z,12.68
2019-01-15T06:05:35.363Z,11.90
2019-01-15T06:06:40.210Z,10.95
2019-01-15T06:07:45.011Z,10.85
2019-01-15T06:08:49.867Z,11.63
2019-01-15T06:09:54.628Z,12.18
2019-01-15T06:10:59.663Z,12.73
2019-01-15T06:12:06.255Z,11.12
2019-01-15T06:13:10.957Z,11.40
2019-01-15T06:14:15.736Z,12.58
2019-01-15T06:15:20.489Z,10.82
2019-01-15T06:16:25.288Z,12.40
2019-01-15T06:17:30.400Z,12.07
2019-01-15T06:18:35.109Z,12.03
2019-01-15T06:19:39.828Z,11.63
2019-01-15T06:20:48.949Z,11.53
2019-01-15T06:21:53.980Z,12.35
2019-01-15T06:22:58.864Z,11.35
2019-01-15T06:24:03.657Z,12.20
2019-01-15T06:25:08.847Z,12.10
2019-01-15T06:26:15.901Z,10.38
2019-01-15T06:27:20.725Z,10.90
2019-01-15T06:28:27.292Z,11.43
2019-01-15T06:29:37.972Z,11.48
2019-01-15T06:30:42.812Z,11.68
2019-01-15T06:31:47.652Z,12.40
2019-01-15T06:32:52.427Z,10.15
2019-01-15T06:33:57.262Z,10.08
2019-01-15T06:35:02.013Z,9.65
2019-01-15T06:36:06.801Z,10.03
2019-01-15T06:37:11.817Z,11.73
2019-01-15T06:38:16.868Z,11.90
2019-01-15T06:39:21.629Z,12.50
2019-01-15T06:40:26.479Z,10.58
2019-01-15T06:41:31.230Z,11.60
2019-01-15T06:42:36.120Z,10.78
2019-01-15T06:43:41.202Z,10.65
2019-01-15T06:44:46.201Z,10.10
2019-01-15T06:46:02.647Z,10.48
2019-01-15T06:47:13.385Z,11.38
2019-01-15T06:48:19.690Z,10.70
2019-01-15T06:49:26.273Z,11.40
2019-01-15T06:50:31.767Z,9.25
2019-01-15T06:51:37.877Z,11.20
2019-01-15T06:52:43.393Z,10.13
2019-01-15T06:53:49.892Z,11.63
2019-01-15T06:54:59.246Z,10.80
2019-01-15T06:56:04.408Z,10.20
2019-01-15T06:57:09.693Z,10.00
2019-01-15T06:58:14.565Z,9.93
2019-01-15T06:59:19.905Z,10.38
2019-01-15T07:00:27.006Z,9.30
2019-01-15T07:01:31.824Z,10.28
2019-01-15T07:02:37.977Z,12.47
2019-01-15T07:03:44.816Z,9.48
2019-01-15T07:04:50.350Z,11.25
2019-01-15T07:05:55.403Z,11.38
2019-01-15T07:07:05.541Z,8.85
2019-01-15T07:08:12.850Z,10.53
2019-01-15T07:09:22.883Z,10.00
2019-01-15T07:10:30.711Z,9.93
2019-01-15T07:11:35.460Z,10.45
2019-01-15T07:12:40.192Z,10.78
2019-01-15T07:13:44.989Z,9.35
2019-01-15T07:14:49.767Z,10.78
2019-01-15T07:15:55.325Z,10.23
2019-01-15T07:17:00.548Z,9.83
2019-01-15T07:18:05.529Z,11.80
2019-01-15T07:19:10.390Z,9.60
2019-01-15T07:20:15.709Z,9.20
2019-01-15T07:21:20.525Z,10.15
2019-01-15T07:22:25.421Z,13.53
2019-01-15T07:23:30.505Z,11.12
2019-01-15T07:24:35.446Z,8.88
2019-01-15T07:25:40.352Z,9.50
2019-01-15T07:26:45.249Z,10.58
2019-01-15T07:27:50.030Z,12.18
2019-01-15T07:28:54.820Z,11.65
2019-01-15T07:30:00.189Z,12.55
2019-01-15T07:31:05.115Z,10.30
2019-01-15T07:32:09.836Z,9.23
2019-01-15T07:33:14.980Z,9.68
2019-01-15T07:34:19.765Z,9.60
2019-01-15T07:35:24.589Z,8.95
2019-01-15T07:36:29.404Z,9.88
2019-01-15T07:37:37.276Z,9.23
2019-01-15T07:38:42.122Z,9.83
2019-01-15T07:39:49.705Z,9.30
2019-01-15T07:40:54.527Z,9.55
2019-01-15T07:41:59.357Z,9.20
2019-01-15T07:43:04.523Z,8.95
2019-01-15T07:44:09.357Z,8.58
2019-01-15T07:45:14.301Z,9.40
2019-01-15T07:46:19.188Z,9.15
2019-01-15T07:47:24.018Z,9.60
2019-01-15T07:48:28.778Z,8.38
2019-01-15T07:49:33.896Z,8.83
2019-01-15T07:50:38.715Z,7.50
2019-01-15T07:51:43.614Z,9.73
2019-01-15T07:52:48.755Z,9.55
2019-01-15T07:53:53.555Z,9.18
2019-01-15T07:55:00.239Z,9.68
2019-01-15T07:56:05.444Z,9.88
2019-01-15T07:57:10.353Z,9.53
2019-01-15T07:58:15.111Z,9.33
2019-01-15T07:59:19.916Z,9.45
2019-01-15T08:00:24.899Z,10.38
2019-01-15T08:01:29.845Z,9.73
2019-01-15T08:02:34.964Z,9.48
2019-01-15T08:03:39.832Z,12.50
2019-01-15T08:04:44.620Z,8.98
2019-01-15T08:05:49.449Z,10.23
2019-01-15T08:06:54.391Z,9.68
2019-01-15T08:07:59.236Z,9.00
2019-01-15T08:09:06.516Z,11.43
2019-01-15T08:10:17.215Z,9.70
2019-01-15T08:11:19.728Z,10.35
2019-01-15T08:12:27.693Z,10.38
2019-01-15T08:13:32.679Z,9.65
2019-01-15T08:14:38.396Z,10.23
2019-01-15T08:15:48.180Z,9.68
2019-01-15T08:16:53.212Z,10.08
2019-01-15T08:18:00.819Z,10.28
2019-01-15T08:19:07.507Z,11.30
2019-01-15T08:20:13.205Z,12.33
2019-01-15T08:21:18.270Z,9.73
2019-01-15T08:22:27.035Z,10.43
2019-01-15T08:23:31.821Z,11.03
2019-01-15T08:24:36.782Z,10.45
2019-01-15T08:25:41.891Z,11.20
2019-01-15T08:26:46.763Z,10.35
2019-01-15T08:27:51.495Z,11.68
2019-01-15T08:28:56.445Z,11.60
2019-01-15T08:30:28.865Z,11.93
2019-01-15T08:31:33.671Z,10.10
2019-01-15T08:32:38.642Z,11.63
2019-01-15T08:33:43.803Z,11.43
2019-01-15T08:34:48.638Z,10.25
2019-01-15T08:35:53.485Z,11.70
2019-01-15T08:36:58.360Z,11.53
2019-01-15T08:38:03.516Z,12.15
2019-01-15T08:39:09.257Z,11.75
2019-01-15T08:40:14.471Z,11.75
2019-01-15T08:41:24.863Z,11.63
2019-01-15T08:42:29.642Z,12.45
2019-01-15T08:43:34.358Z,12.88
2019-01-15T08:44:39.222Z,12.80
2019-01-15T08:45:44.007Z,11.63
2019-01-15T08:46:48.747Z,13.35
2019-01-15T08:47:57.405Z,11.12
2019-01-15T08:49:02.256Z,12.88
2019-01-15T08:50:10.394Z,14.00
2019-01-15T08:51:18.171Z,12.65
2019-01-15T08:52:22.987Z,13.95
2019-01-15T08:53:27.912Z,17.05
2019-01-15T08:54:34.944Z,12.60
2019-01-15T08:55:42.697Z,14.93
2019-01-15T08:56:48.890Z,14.10
2019-01-15T08:57:54.051Z,12.70
2019-01-15T08:58:58.843Z,13.48
2019-01-15T09:00:03.604Z,13.30
2019-01-15T09:01:08.320Z,13.00
2019-01-15T09:02:21.592Z,14.70
2019-01-15T09:03:26.629Z,13.08
2019-01-15T09:04:31.390Z,13.80
2019-01-15T09:05:37.349Z,14.33
2019-01-15T09:06:43.163Z,14.10
2019-01-15T09:07:51.060Z,13.75
2019-01-15T09:08:56.156Z,13.45
2019-01-15T09:10:00.909Z,13.32
2019-01-15T09:11:08.812Z,13.60
2019-01-15T09:12:17.664Z,12.10
2019-01-15T09:13:31.760Z,14.20
2019-01-15T09:14:39.680Z,14.50
2019-01-15T09:15:49.693Z,14.25
2019-01-15T09:16:54.496Z,14.28
2019-01-15T09:18:01.617Z,14.43
2019-01-15T09:19:06.429Z,13.25
2019-01-15T09:20:22.028Z,15.05
2019-01-15T09:21:26.789Z,13.93
2019-01-15T09:22:31.593Z,13.40
2019-01-15T09:23:36.445Z,14.50
2019-01-15T09:24:41.172Z,14.15
2019-01-15T09:25:45.917Z,14.87
2019-01-15T09:26:50.975Z,13.48
2019-01-15T09:27:55.970Z,13.85
2019-01-15T09:29:00.760Z,14.03
2019-01-15T09:30:08.290Z,14.55
2019-01-15T09:31:16.181Z,13.10
2019-01-15T09:32:21.168Z,12.50
2019-01-15T09:33:26.106Z,12.90
2019-01-15T09:34:30.920Z,13.90
2019-01-15T09:35:35.653Z,14.65
2019-01-15T09:36:40.418Z,14.58
2019-01-15T09:37:46.808Z,13.15
2019-01-15T09:38:51.693Z,14.33
2019-01-15T09:39:56.568Z,13.68
2019-01-15T09:41:01.333Z,14.18
2019-01-15T09:42:07.689Z,14.63
2019-01-15T09:43:12.549Z,14.53
2019-01-15T09:44:17.298Z,12.50
2019-01-15T09:45:26.881Z,14.40
2019-01-15T09:46:31.644Z,13.35
2019-01-15T09:47:37.976Z,13.72
2019-01-15T09:48:42.756Z,13.25
2019-01-15T09:49:47.503Z,13.80
2019-01-15T09:50:52.672Z,12.30
2019-01-15T09:51:57.454Z,13.60
2019-01-15T09:53:03.096Z,12.65
2019-01-15T09:54:10.299Z,13.85
2019-01-15T09:55:15.156Z,13.43
2019-01-15T09:56:20.143Z,13.70
2019-01-15T09:57:24.918Z,13.35
2019-01-15T09:58:31.838Z,12.10
2019-01-15T09:59:36.601Z,12.47
2019-01-15T10:00:41.326Z,12.88
2019-01-15T10:01:46.192Z,14.78
2019-01-15T10:02:51.052Z,14.07
2019-01-15T10:03:56.183Z,13.58
2019-01-15T10:05:01.169Z,13.75
2019-01-15T10:06:08.773Z,14.07
2019-01-15T10:07:13.540Z,12.20
2019-01-15T10:08:19.832Z,12.90
2019-01-15T10:09:24.960Z,11.65
2019-01-15T10:10:29.711Z,12.45
2019-01-15T10:11:34.446Z,13.80
2019-01-15T10:12:39.221Z,11.60
2019-01-15T10:13:48.296Z,12.10
2019-01-15T10:14:56.163Z,11.00
2019-01-15T10:16:00.956Z,13.68
2019-01-15T10:17:05.950Z,11.97
2019-01-15T10:18:10.668Z,11.53
2019-01-15T10:19:15.441Z,12.73
2019-01-15T10:20:22.284Z,11.78
2019-01-15T10:21:30.377Z,11.80
2019-01-15T10:22:45.714Z,11.18
2019-01-15T10:23:51.945Z,12.88
2019-01-15T10:24:56.823Z,9.93
2019-01-15T10:26:04.676Z,11.65
2019-01-15T10:27:09.685Z,10.60
2019-01-15T10:28:15.415Z,11.55
2019-01-15T10:29:21.557Z,11.63
2019-01-15T10:30:40.755Z,12.15
2019-01-15T10:32:25.680Z,10.50
2019-01-15T10:33:36.641Z,9.05
2019-01-15T10:34:43.253Z,10.48
2019-01-15T10:35:55.409Z,10.82
2019-01-15T10:36:58.612Z,11.28
2019-01-15T10:38:03.445Z,10.00
2019-01-15T10:39:12.652Z,10.18
2019-01-15T10:40:18.490Z,9.10
2019-01-15T10:41:23.465Z,11.38
2019-01-15T10:42:31.588Z,10.03
2019-01-15T10:43:39.554Z,10.15
2019-01-15T10:44:48.629Z,11.57
2019-01-15T10:45:50.801Z,9.35
2019-01-15T10:46:56.034Z,10.35
2019-01-15T10:48:02.132Z,8.30
2019-01-15T10:49:07.074Z,9.13
2019-01-15T10:50:19.711Z,9.85
2019-01-15T10:51:24.471Z,9.78
2019-01-15T10:52:29.227Z,8.98
2019-01-15T10:53:34.007Z,11.43
2019-01-15T10:54:38.965Z,9.45
2019-01-15T10:55:43.903Z,9.13
2019-01-15T10:56:50.371Z,7.95
2019-01-15T10:57:58.355Z,7.75
2019-01-15T10:59:01.584Z,7.25
2019-01-15T11:00:08.656Z,7.85
2019-01-15T11:01:13.587Z,8.25
2019-01-15T11:02:18.291Z,7.15
2019-01-15T11:03:27.381Z,6.70
2019-01-15T11:04:36.446Z,7.50
2019-01-15T11:05:41.212Z,7.20
2019-01-15T11:06:51.095Z,7.80
2019-01-15T11:07:58.777Z,8.23
2019-01-15T11:09:10.848Z,7.22
2019-01-15T11:10:19.287Z,6.72
2019-01-15T11:11:24.211Z,6.58
2019-01-15T11:12:29.260Z,7.58
2019-01-15T11:13:39.695Z,6.85
2019-01-15T11:14:47.919Z,7.75
2019-01-15T11:15:55.532Z,6.42
2019-01-15T11:17:04.238Z,8.45
2019-01-15T11:18:09.050Z,7.10
2019-01-15T11:19:13.889Z,6.72
2019-01-15T11:20:19.758Z,7.67
2019-01-15T11:21:24.860Z,7.30
2019-01-15T11:22:31.500Z,7.60
2019-01-15T11:23:36.543Z,6.80
2019-01-15T11:24:41.785Z,6.40
2019-01-15T11:25:51.175Z,5.85
2019-01-15T11:26:56.578Z,6.75
2019-01-15T11:28:02.979Z,7.60
2019-01-15T11:29:10.093Z,6.90
2019-01-15T11:30:22.293Z,6.45
2019-01-15T11:31:27.819Z,6.10
2019-01-15T11:32:32.789Z,5.22
2019-01-15T11:33:40.897Z,6.22
2019-01-15T11:34:48.185Z,5.67
2019-01-15T11:35:55.749Z,4.72
2019-01-15T11:37:00.795Z,6.70
2019-01-15T11:38:08.891Z,5.20
2019-01-15T11:39:13.791Z,5.72
2019-01-15T11:40:19.150Z,4.65
2019-01-15T11:41:27.790Z,5.95
2019-01-15T11:42:32.832Z,5.62
2019-01-15T11:43:44.332Z,5.28
2019-01-15T11:44:52.171Z,6.67
2019-01-15T11:45:58.720Z,4.85
2019-01-15T11:47:04.921Z,4.47
2019-01-15T11:48:11.329Z,5.75
2019-01-15T11:49:17.395Z,4.95
2019-01-15T11:50:23.607Z,4.60
2019-01-15T11:51:30.474Z,5.12
2019-01-15T11:52:36.322Z,4.62
2019-01-15T11:53:42.244Z,5.10
2019-01-15T11:54:49.890Z,6.50
2019-01-15T11:55:57.235Z,4.03
2019-01-15T11:57:05.672Z,4.60
2019-01-15T11:58:10.625Z,4.60
2019-01-15T11:59:17.033Z,4.85
2019-01-15T12:00:35.215Z,5.47
2019-01-15T12:01:49.302Z,4.45
2019-01-15T12:03:22.229Z,4.53
2019-01-15T12:04:40.828Z,4.25
2019-01-15T12:05:58.492Z,5.28
2019-01-15T12:07:34.361Z,4.50
2019-01-15T12:09:10.705Z,3.17
2019-01-15T12:10:43.291Z,3.87
2019-01-15T12:12:09.949Z,4.92
2019-01-15T12:13:29.097Z,3.35
2019-01-15T12:14:51.659Z,4.87
2019-01-15T12:16:28.343Z,5.33
2019-01-15T12:17:54.977Z,4.35
2019-01-15T12:19:09.075Z,4.47
2019-01-15T12:20:45.538Z,5.62
2019-01-15T12:22:09.184Z,3.75
2019-01-15T12:23:44.734Z,4.20
2019-01-15T12:25:06.965Z,4.10
2019-01-15T12:26:32.506Z,4.10
2019-01-15T12:27:55.288Z,4.15
2019-01-15T12:29:25.244Z,4.17
2019-01-15T12:30:55.093Z,4.25
2019-01-15T12:32:21.234Z,4.10
2019-01-15T12:33:44.060Z,4.70
2019-01-15T12:35:10.550Z,4.05
2019-01-15T12:36:24.023Z,4.90
2019-01-15T12:37:46.156Z,3.90
2019-01-15T12:39:10.236Z,4.58
2019-01-15T12:40:42.676Z,4.97
2019-01-15T12:41:58.552Z,4.20
2019-01-15T12:43:22.451Z,4.20
2019-01-15T12:44:44.962Z,4.75
2019-01-15T12:46:07.720Z,4.12
2019-01-15T12:47:40.145Z,4.53
2019-01-15T12:49:09.413Z,6.15
2019-01-15T12:50:33.588Z,4.75
2019-01-15T12:52:09.352Z,4.42
2019-01-15T12:53:31.286Z,4.75
2019-01-15T12:54:46.003Z,4.45
2019-01-15T12:56:10.419Z,4.50
2019-01-15T12:57:40.361Z,3.92
2019-01-15T12:59:19.260Z,4.28
2019-01-15T13:00:51.716Z,3.17
2019-01-15T13:02:15.740Z,3.92
2019-01-15T13:03:54.450Z,4.00
2019-01-15T13:05:24.185Z,3.87
2019-01-15T13:06:46.875Z,3.70
2019-01-15T13:08:10.009Z,4.45
2019-01-15T13:09:34.000Z,4.25
2019-01-15T13:10:50.474Z,3.37
2019-01-15T13:12:18.120Z,3.90
2019-01-15T13:13:41.784Z,3.65
2019-01-15T13:15:04.041Z,4.40
2019-01-15T13:16:39.680Z,3.90
2019-01-15T13:18:01.968Z,4.55
2019-01-15T13:19:40.792Z,4.35
2019-01-15T13:21:13.869Z,4.20
2019-01-15T13:22:41.021Z,4.53
2019-01-15T13:24:10.689Z,3.35
2019-01-15T13:25:34.714Z,4.25
2019-01-15T13:27:11.228Z,3.45
2019-01-15T13:28:33.896Z,4.75
2019-01-15T13:29:57.882Z,4.17
2019-01-15T13:31:30.868Z,4.75
2019-01-15T13:32:58.299Z,4.37
2019-01-15T13:34:40.336Z,5.33
2019-01-15T13:36:02.896Z,3.75
2019-01-15T13:37:27.613Z,4.80
2019-01-15T13:39:06.343Z,5.83
2019-01-15T13:40:29.620Z,4.53
2019-01-15T13:42:01.080Z,4.70
2019-01-15T13:43:24.087Z,5.55
2019-01-15T13:44:56.990Z,4.30
2019-01-15T13:46:25.912Z,4.80
2019-01-15T13:48:08.144Z,4.90
2019-01-15T13:49:31.619Z,3.85
2019-01-15T13:51:15.074Z,4.22
2019-01-15T13:52:41.831Z,4.00
2019-01-15T13:54:29.084Z,4.35
2019-01-15T13:55:54.306Z,4.47
2019-01-15T13:57:22.604Z,4.65
2019-01-15T13:58:47.821Z,4.20
2019-01-15T14:00:19.888Z,4.35
2019-01-15T14:01:55.637Z,3.55
2019-01-15T14:03:17.764Z,4.05
2019-01-15T14:05:10.367Z,3.85
2019-01-15T14:06:39.627Z,5.30
2019-01-15T14:08:09.104Z,4.20
2019-01-15T14:09:47.885Z,4.90
2019-01-15T14:11:23.573Z,3.50
2019-01-15T14:12:54.714Z,4.12
2019-01-15T14:14:33.191Z,3.90
2019-01-15T14:16:07.735Z,3.90
2019-01-15T14:17:37.715Z,5.12
2019-01-15T14:19:02.908Z,4.17
2019-01-15T14:20:26.407Z,4.47
2019-01-15T14:22:06.049Z,3.58
2019-01-15T14:23:29.433Z,4.20
2019-01-15T14:24:47.050Z,4.83
2019-01-15T14:26:13.563Z,4.92
2019-01-15T14:27:55.142Z,4.90
2019-01-15T14:29:36.920Z,5.10
2019-01-15T14:31:02.109Z,6.17
2019-01-15T14:32:32.221Z,4.95
2019-01-15T14:33:56.187Z,4.60
2019-01-15T14:35:22.990Z,3.52
2019-01-15T14:36:40.384Z,5.50
2019-01-15T14:38:08.985Z,8.23
2019-01-15T14:39:31.764Z,5.03
2019-01-15T14:40:54.077Z,4.78
2019-01-15T14:42:27.405Z,4.05
2019-01-15T14:43:54.340Z,3.90
2019-01-15T14:45:33.109Z,3.80
2019-01-15T14:47:08.568Z,9.20
2019-01-15T14:48:32.286Z,3.62
2019-01-15T14:50:05.372Z,3.80
2019-01-15T14:51:35.130Z,5.67
2019-01-15T14:53:06.434Z,4.87
2019-01-15T14:54:46.758Z,4.22
2019-01-15T14:56:13.753Z,3.95
2019-01-15T14:57:37.546Z,3.60
2019-01-15T14:59:07.076Z,3.72
2019-01-15T15:00:58.480Z,3.70
2019-01-15T15:02:33.439Z,3.10
2019-01-15T15:04:00.241Z,4.60
2019-01-15T15:05:25.064Z,3.27
2019-01-15T15:06:57.506Z,3.40
2019-01-15T15:08:13.857Z,3.50
2019-01-15T15:09:54.542Z,4.42
2019-01-15T15:11:16.808Z,4.80
2019-01-15T15:12:43.405Z,3.87
2019-01-15T15:14:11.698Z,4.12
2019-01-15T15:15:47.743Z,4.22
2019-01-15T15:17:11.163Z,4.08